sensor_id;sensor_type;location;lat;lon;timestamp;temperature;humidity
69281;SHT31;56392;51.082;17.080;2022-09-02T00:04:18;15.03;71.23
69281;SHT31;56392;51.082;17.080;2022-09-02T00:09:24;14.99;71.02
69281;SHT31;56392;51.082;17.080;2022-09-02T00:14:29;14.99;71.11
69281;SHT31;56392;51.082;17.080;2022-09-02T00:19:32;15.00;72.07
69281;SHT31;56392;51.082;17.080;2022-09-02T00:24:36;14.97;72.54
69281;SHT31;56392;51.082;17.080;2022-09-02T00:29:39;14.96;71.68
69281;SHT31;56392;51.082;17.080;2022-09-02T00:34:42;14.99;71.68
69281;SHT31;56392;51.082;17.080;2022-09-02T00:39:46;14.93;71.05
69281;SHT31;56392;51.082;17.080;2022-09-02T00:44:49;14.93;72.19
69281;SHT31;56392;51.082;17.080;2022-09-02T00:49:53;14.93;72.95
69281;SHT31;56392;51.082;17.080;2022-09-02T00:54:59;14.87;72.76
69281;SHT31;56392;51.082;17.080;2022-09-02T01:00:07;14.87;73.03
69281;SHT31;56392;51.082;17.080;2022-09-02T01:05:13;14.86;72.73
69281;SHT31;56392;51.082;17.080;2022-09-02T01:10:20;14.87;72.63
69281;SHT31;56392;51.082;17.080;2022-09-02T01:15:24;14.83;73.06
69281;SHT31;56392;51.082;17.080;2022-09-02T01:20:27;14.79;73.24
69281;SHT31;56392;51.082;17.080;2022-09-02T01:25:32;14.75;73.12
69281;SHT31;56392;51.082;17.080;2022-09-02T01:30:36;14.62;73.91
69281;SHT31;56392;51.082;17.080;2022-09-02T01:35:40;14.59;74.33
69281;SHT31;56392;51.082;17.080;2022-09-02T01:40:44;14.52;74.22
69281;SHT31;56392;51.082;17.080;2022-09-02T01:45:48;14.46;74.59
69281;SHT31;56392;51.082;17.080;2022-09-02T01:50:55;14.48;74.68
69281;SHT31;56392;51.082;17.080;2022-09-02T01:55:59;14.46;74.95
69281;SHT31;56392;51.082;17.080;2022-09-02T02:01:01;14.42;74.96
69281;SHT31;56392;51.082;17.080;2022-09-02T02:06:07;14.29;75.44
69281;SHT31;56392;51.082;17.080;2022-09-02T02:11:18;14.26;75.90
69281;SHT31;56392;51.082;17.080;2022-09-02T02:16:21;14.26;76.00
69281;SHT31;56392;51.082;17.080;2022-09-02T02:21:26;14.28;76.22
69281;SHT31;56392;51.082;17.080;2022-09-02T02:26:31;14.19;76.28
69281;SHT31;56392;51.082;17.080;2022-09-02T02:31:33;14.25;75.90
69281;SHT31;56392;51.082;17.080;2022-09-02T02:36:37;14.22;75.56
69281;SHT31;56392;51.082;17.080;2022-09-02T02:41:41;14.09;75.84
69281;SHT31;56392;51.082;17.080;2022-09-02T02:46:44;14.01;76.45
69281;SHT31;56392;51.082;17.080;2022-09-02T02:51:47;14.00;76.82
69281;SHT31;56392;51.082;17.080;2022-09-02T02:56:51;14.04;76.39
69281;SHT31;56392;51.082;17.080;2022-09-02T03:01:53;13.94;76.58
69281;SHT31;56392;51.082;17.080;2022-09-02T03:06:56;13.92;76.86
69281;SHT31;56392;51.082;17.080;2022-09-02T03:12:00;13.98;76.87
69281;SHT31;56392;51.082;17.080;2022-09-02T03:17:03;13.97;77.20
69281;SHT31;56392;51.082;17.080;2022-09-02T03:22:05;14.02;77.22
69281;SHT31;56392;51.082;17.080;2022-09-02T03:27:09;14.05;77.15
69281;SHT31;56392;51.082;17.080;2022-09-02T03:32:12;14.08;77.38
69281;SHT31;56392;51.082;17.080;2022-09-02T03:37:15;14.07;77.25
69281;SHT31;56392;51.082;17.080;2022-09-02T03:42:20;14.07;77.57
69281;SHT31;56392;51.082;17.080;2022-09-02T03:47:23;14.07;77.71
69281;SHT31;56392;51.082;17.080;2022-09-02T03:52:29;14.11;77.73
69281;SHT31;56392;51.082;17.080;2022-09-02T03:57:35;14.07;77.52
69281;SHT31;56392;51.082;17.080;2022-09-02T04:02:38;14.12;77.60
69281;SHT31;56392;51.082;17.080;2022-09-02T04:07:42;14.01;77.75
69281;SHT31;56392;51.082;17.080;2022-09-02T04:12:47;13.94;77.74
69281;SHT31;56392;51.082;17.080;2022-09-02T04:17:50;13.91;77.70
69281;SHT31;56392;51.082;17.080;2022-09-02T04:22:52;13.98;77.31
69281;SHT31;56392;51.082;17.080;2022-09-02T04:27:56;13.98;77.00
69281;SHT31;56392;51.082;17.080;2022-09-02T04:32:59;13.98;77.11
69281;SHT31;56392;51.082;17.080;2022-09-02T04:38:02;13.92;77.31
69281;SHT31;56392;51.082;17.080;2022-09-02T04:43:06;13.84;77.75
69281;SHT31;56392;51.082;17.080;2022-09-02T04:48:08;13.70;78.25
69281;SHT31;56392;51.082;17.080;2022-09-02T04:53:11;13.71;78.45
69281;SHT31;56392;51.082;17.080;2022-09-02T04:58:15;13.70;78.27
69281;SHT31;56392;51.082;17.080;2022-09-02T05:03:18;13.67;78.29
69281;SHT31;56392;51.082;17.080;2022-09-02T05:08:21;13.61;78.67
69281;SHT31;56392;51.082;17.080;2022-09-02T05:13:25;13.63;78.72
69281;SHT31;56392;51.082;17.080;2022-09-02T05:18:29;13.67;78.73
69281;SHT31;56392;51.082;17.080;2022-09-02T05:23:32;13.90;78.12
69281;SHT31;56392;51.082;17.080;2022-09-02T05:28:36;14.21;77.69
69281;SHT31;56392;51.082;17.080;2022-09-02T05:33:40;14.65;77.36
69281;SHT31;56392;51.082;17.080;2022-09-02T05:38:44;15.06;76.59
69281;SHT31;56392;51.082;17.080;2022-09-02T05:43:48;15.65;74.79
69281;SHT31;56392;51.082;17.080;2022-09-02T05:48:53;17.69;68.29
69281;SHT31;56392;51.082;17.080;2022-09-02T05:54:11;19.57;62.78
69281;SHT31;56392;51.082;17.080;2022-09-02T05:59:16;19.65;61.90
69281;SHT31;56392;51.082;17.080;2022-09-02T06:04:20;20.42;59.44
69281;SHT31;56392;51.082;17.080;2022-09-02T06:09:23;24.34;48.22
69281;SHT31;56392;51.082;17.080;2022-09-02T06:14:28;29.29;37.02
69281;SHT31;56392;51.082;17.080;2022-09-02T06:19:31;31.18;32.88
69281;SHT31;56392;51.082;17.080;2022-09-02T06:24:34;33.81;30.00
69281;SHT31;56392;51.082;17.080;2022-09-02T06:29:38;35.00;28.41
69281;SHT31;56392;51.082;17.080;2022-09-02T06:34:40;33.81;29.13
69281;SHT31;56392;51.082;17.080;2022-09-02T06:39:43;33.07;30.29
69281;SHT31;56392;51.082;17.080;2022-09-02T06:44:48;30.24;31.38
69281;SHT31;56392;51.082;17.080;2022-09-02T06:49:51;28.50;37.51
69281;SHT31;56392;51.082;17.080;2022-09-02T06:54:53;27.51;39.30
69281;SHT31;56392;51.082;17.080;2022-09-02T06:59:57;26.90;39.64
69281;SHT31;56392;51.082;17.080;2022-09-02T07:05:00;26.06;41.33
69281;SHT31;56392;51.082;17.080;2022-09-02T07:10:15;26.14;41.84
69281;SHT31;56392;51.082;17.080;2022-09-02T07:15:19;26.32;42.22
69281;SHT31;56392;51.082;17.080;2022-09-02T07:20:23;26.24;42.04
69281;SHT31;56392;51.082;17.080;2022-09-02T07:25:26;26.57;41.43
69281;SHT31;56392;51.082;17.080;2022-09-02T07:30:30;26.66;40.39
69281;SHT31;56392;51.082;17.080;2022-09-02T07:35:34;27.34;40.17
69281;SHT31;56392;51.082;17.080;2022-09-02T07:40:39;28.00;39.20
69281;SHT31;56392;51.082;17.080;2022-09-02T07:45:44;29.35;37.04
69281;SHT31;56392;51.082;17.080;2022-09-02T07:50:48;31.54;32.59
69281;SHT31;56392;51.082;17.080;2022-09-02T07:55:54;35.71;27.35
69281;SHT31;56392;51.082;17.080;2022-09-02T08:00:58;39.89;22.34
69281;SHT31;56392;51.082;17.080;2022-09-02T08:06:04;42.88;19.04
69281;SHT31;56392;51.082;17.080;2022-09-02T08:11:07;44.69;17.98
69281;SHT31;56392;51.082;17.080;2022-09-02T08:16:11;45.67;16.97
69281;SHT31;56392;51.082;17.080;2022-09-02T08:21:14;42.35;16.87
69281;SHT31;56392;51.082;17.080;2022-09-02T08:26:17;43.78;16.84
69281;SHT31;56392;51.082;17.080;2022-09-02T08:31:21;45.78;15.86
69281;SHT31;56392;51.082;17.080;2022-09-02T08:36:24;46.23;15.48
69281;SHT31;56392;51.082;17.080;2022-09-02T08:41:33;47.38;14.90
69281;SHT31;56392;51.082;17.080;2022-09-02T08:46:39;47.15;14.99
69281;SHT31;56392;51.082;17.080;2022-09-02T08:51:46;47.69;13.90
69281;SHT31;56392;51.082;17.080;2022-09-02T08:56:49;47.91;14.10
69281;SHT31;56392;51.082;17.080;2022-09-02T09:02:00;46.91;14.18
69281;SHT31;56392;51.082;17.080;2022-09-02T09:07:23;46.40;13.01
69281;SHT31;56392;51.082;17.080;2022-09-02T09:12:41;47.55;13.17
69281;SHT31;56392;51.082;17.080;2022-09-02T09:17:53;46.25;13.52
69281;SHT31;56392;51.082;17.080;2022-09-02T09:22:59;46.03;14.03
69281;SHT31;56392;51.082;17.080;2022-09-02T09:28:02;44.33;15.19
69281;SHT31;56392;51.082;17.080;2022-09-02T09:33:07;38.36;20.10
69281;SHT31;56392;51.082;17.080;2022-09-02T09:38:13;35.75;22.28
69281;SHT31;56392;51.082;17.080;2022-09-02T09:43:16;38.33;18.96
69281;SHT31;56392;51.082;17.080;2022-09-02T09:48:22;36.56;20.14
69281;SHT31;56392;51.082;17.080;2022-09-02T09:53:30;41.43;16.64
69281;SHT31;56392;51.082;17.080;2022-09-02T09:58:36;39.83;17.66
69281;SHT31;56392;51.082;17.080;2022-09-02T10:03:50;40.79;17.01
69281;SHT31;56392;51.082;17.080;2022-09-02T10:08:55;30.03;25.38
69281;SHT31;56392;51.082;17.080;2022-09-02T10:13:59;28.74;28.30
69281;SHT31;56392;51.082;17.080;2022-09-02T10:19:11;26.60;30.68
69281;SHT31;56392;51.082;17.080;2022-09-02T10:24:35;25.58;32.51
69281;SHT31;56392;51.082;17.080;2022-09-02T10:29:53;25.20;33.93
69281;SHT31;56392;51.082;17.080;2022-09-02T10:35:05;24.78;34.55
69281;SHT31;56392;51.082;17.080;2022-09-02T10:40:12;24.38;34.97
69281;SHT31;56392;51.082;17.080;2022-09-02T10:45:29;24.32;34.26
69281;SHT31;56392;51.082;17.080;2022-09-02T10:50:38;23.92;34.82
69281;SHT31;56392;51.082;17.080;2022-09-02T10:55:48;23.69;36.49
69281;SHT31;56392;51.082;17.080;2022-09-02T11:00:56;23.65;36.56
69281;SHT31;56392;51.082;17.080;2022-09-02T11:06:03;23.30;36.17
69281;SHT31;56392;51.082;17.080;2022-09-02T11:11:11;23.35;36.65
69281;SHT31;56392;51.082;17.080;2022-09-02T11:16:24;23.46;36.97
69281;SHT31;56392;51.082;17.080;2022-09-02T11:21:37;23.16;36.63
69281;SHT31;56392;51.082;17.080;2022-09-02T11:26:47;22.98;38.03
69281;SHT31;56392;51.082;17.080;2022-09-02T11:32:01;23.11;36.82
69281;SHT31;56392;51.082;17.080;2022-09-02T11:37:10;23.30;36.78
69281;SHT31;56392;51.082;17.080;2022-09-02T11:42:21;22.90;35.50
69281;SHT31;56392;51.082;17.080;2022-09-02T11:47:37;23.11;36.66
69281;SHT31;56392;51.082;17.080;2022-09-02T11:52:54;22.81;36.34
69281;SHT31;56392;51.082;17.080;2022-09-02T11:57:59;22.39;37.11
69281;SHT31;56392;51.082;17.080;2022-09-02T12:03:16;22.61;36.93
69281;SHT31;56392;51.082;17.080;2022-09-02T12:09:00;22.83;35.07
69281;SHT31;56392;51.082;17.080;2022-09-02T12:14:04;22.71;34.19
69281;SHT31;56392;51.082;17.080;2022-09-02T12:19:23;22.63;34.58
69281;SHT31;56392;51.082;17.080;2022-09-02T12:24:47;22.60;35.82
69281;SHT31;56392;51.082;17.080;2022-09-02T12:29:52;22.57;35.46
69281;SHT31;56392;51.082;17.080;2022-09-02T12:34:55;22.60;36.27
69281;SHT31;56392;51.082;17.080;2022-09-02T12:40:13;22.72;37.64
69281;SHT31;56392;51.082;17.080;2022-09-02T12:45:23;22.57;37.14
69281;SHT31;56392;51.082;17.080;2022-09-02T12:50:28;22.77;37.08
69281;SHT31;56392;51.082;17.080;2022-09-02T12:55:34;22.54;37.58
69281;SHT31;56392;51.082;17.080;2022-09-02T13:00:52;22.06;38.34
69281;SHT31;56392;51.082;17.080;2022-09-02T13:06:00;21.49;40.00
69281;SHT31;56392;51.082;17.080;2022-09-02T13:16:47;21.56;41.06
69281;SHT31;56392;51.082;17.080;2022-09-02T13:22:13;21.28;41.79
69281;SHT31;56392;51.082;17.080;2022-09-02T13:27:47;21.30;41.32
69281;SHT31;56392;51.082;17.080;2022-09-02T13:33:00;21.69;40.83
69281;SHT31;56392;51.082;17.080;2022-09-02T13:38:08;21.92;39.64
69281;SHT31;56392;51.082;17.080;2022-09-02T13:43:18;21.78;39.49
69281;SHT31;56392;51.082;17.080;2022-09-02T13:48:23;21.69;40.59
69281;SHT31;56392;51.082;17.080;2022-09-02T13:53:30;21.58;40.77
69281;SHT31;56392;51.082;17.080;2022-09-02T13:58:37;21.32;40.25
69281;SHT31;56392;51.082;17.080;2022-09-02T14:03:44;21.27;41.26
69281;SHT31;56392;51.082;17.080;2022-09-02T14:08:50;21.23;41.65
69281;SHT31;56392;51.082;17.080;2022-09-02T14:13:55;21.20;42.36
69281;SHT31;56392;51.082;17.080;2022-09-02T14:19:10;21.38;43.39
69281;SHT31;56392;51.082;17.080;2022-09-02T14:24:19;21.44;42.09
69281;SHT31;56392;51.082;17.080;2022-09-02T14:29:25;21.25;42.28
69281;SHT31;56392;51.082;17.080;2022-09-02T14:34:34;21.17;43.33
69281;SHT31;56392;51.082;17.080;2022-09-02T14:40:04;21.18;43.78
69281;SHT31;56392;51.082;17.080;2022-09-02T14:45:24;21.38;43.54
69281;SHT31;56392;51.082;17.080;2022-09-02T14:50:29;21.42;42.89
69281;SHT31;56392;51.082;17.080;2022-09-02T14:55:55;21.45;45.21
69281;SHT31;56392;51.082;17.080;2022-09-02T15:01:00;21.34;43.27
69281;SHT31;56392;51.082;17.080;2022-09-02T15:06:03;21.21;42.87
69281;SHT31;56392;51.082;17.080;2022-09-02T15:11:06;21.21;42.58
69281;SHT31;56392;51.082;17.080;2022-09-02T15:16:10;21.21;42.99
69281;SHT31;56392;51.082;17.080;2022-09-02T15:21:13;21.05;42.95
69281;SHT31;56392;51.082;17.080;2022-09-02T15:26:17;21.01;43.19
69281;SHT31;56392;51.082;17.080;2022-09-02T15:31:21;20.93;43.87
69281;SHT31;56392;51.082;17.080;2022-09-02T15:36:23;20.91;44.17
69281;SHT31;56392;51.082;17.080;2022-09-02T15:41:27;20.81;44.40
69281;SHT31;56392;51.082;17.080;2022-09-02T15:46:33;20.64;44.64
69281;SHT31;56392;51.082;17.080;2022-09-02T15:51:37;20.52;45.84
69281;SHT31;56392;51.082;17.080;2022-09-02T15:56:42;20.35;45.67
69281;SHT31;56392;51.082;17.080;2022-09-02T16:01:47;20.29;45.99
69281;SHT31;56392;51.082;17.080;2022-09-02T16:06:51;20.25;45.57
69281;SHT31;56392;51.082;17.080;2022-09-02T16:11:53;20.18;45.43
69281;SHT31;56392;51.082;17.080;2022-09-02T16:16:58;20.25;45.64
69281;SHT31;56392;51.082;17.080;2022-09-02T16:22:01;20.24;45.70
69281;SHT31;56392;51.082;17.080;2022-09-02T16:27:04;20.11;46.31
69281;SHT31;56392;51.082;17.080;2022-09-02T16:32:07;20.05;46.38
69281;SHT31;56392;51.082;17.080;2022-09-02T16:37:10;20.01;46.36
69281;SHT31;56392;51.082;17.080;2022-09-02T16:42:13;19.96;46.07
69281;SHT31;56392;51.082;17.080;2022-09-02T16:47:17;19.91;46.54
69281;SHT31;56392;51.082;17.080;2022-09-02T16:52:20;19.88;46.44
69281;SHT31;56392;51.082;17.080;2022-09-02T16:57:22;19.77;46.80
69281;SHT31;56392;51.082;17.080;2022-09-02T17:02:26;19.68;47.25
69281;SHT31;56392;51.082;17.080;2022-09-02T17:07:30;19.53;47.53
69281;SHT31;56392;51.082;17.080;2022-09-02T17:12:32;19.34;48.34
69281;SHT31;56392;51.082;17.080;2022-09-02T17:17:36;19.26;48.23
69281;SHT31;56392;51.082;17.080;2022-09-02T17:22:41;19.14;48.59
69281;SHT31;56392;51.082;17.080;2022-09-02T17:27:44;19.03;49.18
69281;SHT31;56392;51.082;17.080;2022-09-02T17:32:48;18.96;49.28
69281;SHT31;56392;51.082;17.080;2022-09-02T17:37:51;18.82;49.91
69281;SHT31;56392;51.082;17.080;2022-09-02T17:42:55;18.65;50.43
69281;SHT31;56392;51.082;17.080;2022-09-02T17:47:59;18.52;50.53
69281;SHT31;56392;51.082;17.080;2022-09-02T17:53:02;18.38;50.83
69281;SHT31;56392;51.082;17.080;2022-09-02T17:58:08;18.27;51.42
69281;SHT31;56392;51.082;17.080;2022-09-02T18:03:35;18.15;52.28
69281;SHT31;56392;51.082;17.080;2022-09-02T18:08:44;18.04;52.08
69281;SHT31;56392;51.082;17.080;2022-09-02T18:13:55;18.00;54.46
69281;SHT31;56392;51.082;17.080;2022-09-02T18:19:10;17.82;58.17
69281;SHT31;56392;51.082;17.080;2022-09-02T18:24:17;17.67;58.57
69281;SHT31;56392;51.082;17.080;2022-09-02T18:29:38;17.56;59.86
69281;SHT31;56392;51.082;17.080;2022-09-02T18:34:51;17.39;60.58
69281;SHT31;56392;51.082;17.080;2022-09-02T18:40:10;17.25;59.33
69281;SHT31;56392;51.082;17.080;2022-09-02T18:45:21;17.25;58.60
69281;SHT31;56392;51.082;17.080;2022-09-02T18:50:28;17.14;59.09
69281;SHT31;56392;51.082;17.080;2022-09-02T18:55:33;17.18;59.59
69281;SHT31;56392;51.082;17.080;2022-09-02T19:00:42;17.04;61.74
69281;SHT31;56392;51.082;17.080;2022-09-02T19:05:47;16.92;63.00
69281;SHT31;56392;51.082;17.080;2022-09-02T19:10:57;16.80;63.19
69281;SHT31;56392;51.082;17.080;2022-09-02T19:16:01;16.71;61.68
69281;SHT31;56392;51.082;17.080;2022-09-02T19:21:05;16.74;61.98
69281;SHT31;56392;51.082;17.080;2022-09-02T19:26:08;16.59;61.01
69281;SHT31;56392;51.082;17.080;2022-09-02T19:31:17;16.50;61.39
69281;SHT31;56392;51.082;17.080;2022-09-02T19:36:24;16.36;61.63
69281;SHT31;56392;51.082;17.080;2022-09-02T19:41:27;16.34;60.87
69281;SHT31;56392;51.082;17.080;2022-09-02T19:46:30;16.36;60.22
69281;SHT31;56392;51.082;17.080;2022-09-02T19:51:35;16.19;60.76
69281;SHT31;56392;51.082;17.080;2022-09-02T19:56:37;16.16;60.55
69281;SHT31;56392;51.082;17.080;2022-09-02T20:01:41;16.13;60.74
69281;SHT31;56392;51.082;17.080;2022-09-02T20:06:45;16.14;60.30
69281;SHT31;56392;51.082;17.080;2022-09-02T20:11:47;15.98;60.85
69281;SHT31;56392;51.082;17.080;2022-09-02T20:16:53;15.95;61.68
69281;SHT31;56392;51.082;17.080;2022-09-02T20:21:57;15.96;60.83
69281;SHT31;56392;51.082;17.080;2022-09-02T20:27:06;16.02;60.30
69281;SHT31;56392;51.082;17.080;2022-09-02T20:32:21;15.92;60.15
69281;SHT31;56392;51.082;17.080;2022-09-02T20:37:35;15.98;59.97
69281;SHT31;56392;51.082;17.080;2022-09-02T20:43:00;16.12;59.51
69281;SHT31;56392;51.082;17.080;2022-09-02T20:48:15;16.12;59.30
69281;SHT31;56392;51.082;17.080;2022-09-02T20:53:43;16.16;58.98
69281;SHT31;56392;51.082;17.080;2022-09-02T20:58:55;16.20;58.45
69281;SHT31;56392;51.082;17.080;2022-09-02T21:04:04;16.19;57.91
69281;SHT31;56392;51.082;17.080;2022-09-02T21:09:14;16.19;57.87
69281;SHT31;56392;51.082;17.080;2022-09-02T21:14:22;16.09;58.08
69281;SHT31;56392;51.082;17.080;2022-09-02T21:19:32;16.03;58.23
69281;SHT31;56392;51.082;17.080;2022-09-02T21:24:39;15.98;58.30
69281;SHT31;56392;51.082;17.080;2022-09-02T21:29:46;15.91;58.45
69281;SHT31;56392;51.082;17.080;2022-09-02T21:34:55;15.98;58.36
69281;SHT31;56392;51.082;17.080;2022-09-02T21:40:03;15.89;58.88
69281;SHT31;56392;51.082;17.080;2022-09-02T21:45:12;15.82;58.98
69281;SHT31;56392;51.082;17.080;2022-09-02T21:50:23;15.79;59.04
69281;SHT31;56392;51.082;17.080;2022-09-02T21:55:41;15.72;59.64
69281;SHT31;56392;51.082;17.080;2022-09-02T22:00:51;15.75;59.32
69281;SHT31;56392;51.082;17.080;2022-09-02T22:05:57;15.69;59.59
69281;SHT31;56392;51.082;17.080;2022-09-02T22:11:08;15.65;59.84
69281;SHT31;56392;51.082;17.080;2022-09-02T22:16:16;15.68;59.54
69281;SHT31;56392;51.082;17.080;2022-09-02T22:21:29;15.71;59.55
69281;SHT31;56392;51.082;17.080;2022-09-02T22:26:38;15.65;59.64
69281;SHT31;56392;51.082;17.080;2022-09-02T22:31:42;15.55;60.09
69281;SHT31;56392;51.082;17.080;2022-09-02T22:36:53;15.41;60.38
69281;SHT31;56392;51.082;17.080;2022-09-02T22:42:03;15.34;60.54
69281;SHT31;56392;51.082;17.080;2022-09-02T22:47:08;15.44;60.51
69281;SHT31;56392;51.082;17.080;2022-09-02T22:52:33;15.44;60.45
69281;SHT31;56392;51.082;17.080;2022-09-02T22:57:56;15.40;60.55
69281;SHT31;56392;51.082;17.080;2022-09-02T23:03:10;15.44;60.22
69281;SHT31;56392;51.082;17.080;2022-09-02T23:08:18;15.30;60.62
69281;SHT31;56392;51.082;17.080;2022-09-02T23:13:37;15.31;60.62
69281;SHT31;56392;51.082;17.080;2022-09-02T23:18:49;15.21;60.59
69281;SHT31;56392;51.082;17.080;2022-09-02T23:24:02;15.21;61.09
69281;SHT31;56392;51.082;17.080;2022-09-02T23:29:23;15.11;60.95
69281;SHT31;56392;51.082;17.080;2022-09-02T23:34:38;15.06;60.99
69281;SHT31;56392;51.082;17.080;2022-09-02T23:39:52;15.07;61.17
69281;SHT31;56392;51.082;17.080;2022-09-02T23:45:00;15.01;60.94
69281;SHT31;56392;51.082;17.080;2022-09-02T23:50:11;14.96;61.33
69281;SHT31;56392;51.082;17.080;2022-09-02T23:55:25;14.91;61.19
